createdAt,value
2022-11-18T00:01:49.131Z,9.35
2022-11-18T00:04:18.860Z,11.55
2022-11-18T00:06:48.276Z,9.70
2022-11-18T00:09:17.904Z,9.15
2022-11-18T00:12:05.166Z,13.95
2022-11-18T00:14:34.414Z,10.03
2022-11-18T00:17:05.883Z,11.90
2022-11-18T00:19:37.835Z,12.15
2022-11-18T00:22:08.401Z,13.48
2022-11-18T00:24:37.863Z,7.58
2022-11-18T00:27:07.070Z,10.40
2022-11-18T00:29:36.460Z,10.30
2022-11-18T00:32:06.176Z,13.22
2022-11-18T00:34:35.590Z,10.20
2022-11-18T00:37:04.790Z,9.28
2022-11-18T00:39:34.049Z,11.85
2022-11-18T00:42:21.187Z,10.60
2022-11-18T00:44:50.703Z,15.25
2022-11-18T00:47:19.992Z,13.65
2022-11-18T00:49:49.406Z,12.00
2022-11-18T00:52:18.598Z,12.45
2022-11-18T00:54:47.876Z,13.58
2022-11-18T00:57:17.103Z,13.32
2022-11-18T00:59:46.363Z,11.22
2022-11-18T01:02:15.623Z,9.95
2022-11-18T01:04:44.870Z,14.43
2022-11-18T01:07:14.306Z,14.53
2022-11-18T01:09:43.677Z,14.73
2022-11-18T01:12:31.573Z,11.20
2022-11-18T01:15:01.379Z,12.28
2022-11-18T01:17:34.205Z,15.60
2022-11-18T01:20:03.460Z,10.15
2022-11-18T01:22:32.846Z,12.50
2022-11-18T01:25:02.141Z,13.03
2022-11-18T01:27:31.833Z,12.37
2022-11-18T01:30:01.082Z,16.48
2022-11-18T01:32:30.442Z,12.82
2022-11-18T01:34:59.675Z,12.55
2022-11-18T01:37:29.251Z,12.80
2022-11-18T01:39:58.465Z,14.38
2022-11-18T01:42:27.729Z,15.03
2022-11-18T01:45:18.005Z,14.35
2022-11-18T01:47:50.330Z,11.08
2022-11-18T01:50:21.273Z,12.03
2022-11-18T01:52:52.164Z,11.08
2022-11-18T01:55:27.400Z,13.93
2022-11-18T01:58:00.007Z,11.93
2022-11-18T02:02:58.450Z,13.65
2022-11-18T02:05:27.929Z,12.15
2022-11-18T02:07:57.851Z,11.88
2022-11-18T02:10:27.361Z,10.72
2022-11-18T02:12:57.693Z,15.53
2022-11-18T02:15:39.260Z,14.45
2022-11-18T02:18:11.814Z,10.75
2022-11-18T02:23:34.717Z,12.75
2022-11-18T02:26:16.033Z,14.55
2022-11-18T02:29:19.497Z,13.98
2022-11-18T02:32:10.048Z,12.10
2022-11-18T02:34:41.585Z,13.15
2022-11-18T02:37:22.625Z,14.30
2022-11-18T02:40:01.542Z,12.73
2022-11-18T02:42:32.274Z,12.93
2022-11-18T02:45:04.816Z,13.03
2022-11-18T02:47:36.073Z,13.38
2022-11-18T02:50:08.706Z,14.00
2022-11-18T02:55:09.052Z,14.80
2022-11-18T02:57:39.251Z,15.78
2022-11-18T03:00:09.336Z,14.47
2022-11-18T03:02:44.337Z,15.45
2022-11-18T03:05:31.999Z,11.40
2022-11-18T03:08:04.817Z,13.72
2022-11-18T03:10:37.375Z,14.00
2022-11-18T03:15:42.451Z,15.20
2022-11-18T03:18:20.838Z,16.80
2022-11-18T03:20:56.340Z,16.48
2022-11-18T03:23:43.705Z,15.78
2022-11-18T03:26:19.752Z,12.75
2022-11-18T03:28:54.867Z,12.65
2022-11-18T03:31:37.149Z,14.38
2022-11-18T03:34:12.675Z,18.10
2022-11-18T03:36:51.637Z,15.80
2022-11-18T03:39:19.869Z,14.47
2022-11-18T03:41:52.480Z,12.20
2022-11-18T03:44:27.613Z,14.75
2022-11-18T03:47:09.297Z,15.03
2022-11-18T03:49:46.550Z,18.02
2022-11-18T03:52:21.558Z,14.05
2022-11-18T03:54:53.486Z,14.65
2022-11-18T03:57:28.629Z,16.32
2022-11-18T04:00:06.784Z,16.77
2022-11-18T04:02:36.554Z,13.60
2022-11-18T04:05:07.899Z,18.60
2022-11-18T04:07:52.215Z,14.00
2022-11-18T04:10:27.079Z,15.55
2022-11-18T04:13:06.199Z,12.55
2022-11-18T04:15:35.923Z,14.07
2022-11-18T04:18:05.844Z,17.62
2022-11-18T04:20:35.198Z,15.03
2022-11-18T04:23:05.438Z,16.95
2022-11-18T04:25:35.587Z,14.83
2022-11-18T04:28:05.421Z,13.48
2022-11-18T04:30:35.005Z,19.07
2022-11-18T04:33:05.324Z,16.52
2022-11-18T04:35:34.642Z,15.05
2022-11-18T04:38:05.078Z,13.08
2022-11-18T04:40:34.468Z,12.03
2022-11-18T04:43:03.888Z,13.32
2022-11-18T04:45:33.079Z,14.03
2022-11-18T04:48:03.879Z,12.03
2022-11-18T04:50:33.324Z,14.10
2022-11-18T04:53:02.778Z,15.90
2022-11-18T04:55:32.013Z,15.18
2022-11-18T04:58:01.380Z,13.05
2022-11-18T05:00:30.644Z,13.85
2022-11-18T05:02:59.884Z,16.85
2022-11-18T05:05:29.218Z,14.78
2022-11-18T05:07:58.436Z,14.38
2022-11-18T05:10:27.668Z,13.25
2022-11-18T05:12:56.895Z,15.25
2022-11-18T05:15:26.183Z,14.55
2022-11-18T05:17:55.602Z,14.73
2022-11-18T05:20:25.008Z,13.80
2022-11-18T05:22:54.228Z,13.48
2022-11-18T05:25:23.590Z,16.12
2022-11-18T05:27:53.157Z,11.83
2022-11-18T05:30:22.468Z,13.93
2022-11-18T05:32:51.894Z,14.38
2022-11-18T05:35:21.154Z,14.87
2022-11-18T05:37:50.723Z,14.87
2022-11-18T05:40:19.948Z,12.58
2022-11-18T05:43:07.462Z,14.33
2022-11-18T05:45:36.871Z,13.62
2022-11-18T05:48:06.924Z,16.17
2022-11-18T05:50:38.119Z,15.32
2022-11-18T05:53:07.717Z,12.50
2022-11-18T05:55:40.259Z,11.05
2022-11-18T06:00:38.105Z,14.63
2022-11-18T06:03:10.559Z,14.38
2022-11-18T06:05:39.962Z,18.12
2022-11-18T06:08:10.697Z,13.60
2022-11-18T06:10:40.392Z,18.05
2022-11-18T06:13:12.059Z,15.55
2022-11-18T06:15:43.216Z,16.47
2022-11-18T06:18:15.805Z,16.73
2022-11-18T06:23:14.572Z,16.90
2022-11-18T06:25:43.989Z,16.57
2022-11-18T06:28:15.017Z,17.55
2022-11-18T06:30:44.546Z,17.40
2022-11-18T06:33:14.260Z,13.80
2022-11-18T06:35:44.121Z,13.08
2022-11-18T06:38:13.337Z,17.50
2022-11-18T06:40:44.407Z,16.35
2022-11-18T06:43:32.255Z,17.82
2022-11-18T06:46:21.530Z,21.07
2022-11-18T06:48:51.094Z,17.77
2022-11-18T06:51:20.860Z,14.58
2022-11-18T06:53:50.328Z,16.32
2022-11-18T06:56:21.350Z,17.60
2022-11-18T06:58:56.543Z,17.12
2022-11-18T07:01:28.137Z,16.05
2022-11-18T07:03:59.636Z,17.30
2022-11-18T07:06:31.824Z,17.27
2022-11-18T07:09:02.511Z,20.20
2022-11-18T07:11:31.762Z,15.45
2022-11-18T07:14:01.386Z,18.00
2022-11-18T07:16:30.760Z,17.80
2022-11-18T07:19:00.013Z,17.48
2022-11-18T07:21:30.337Z,17.82
2022-11-18T07:23:59.582Z,16.90
2022-11-18T07:26:28.943Z,20.23
2022-11-18T07:28:58.243Z,18.75
2022-11-18T07:31:27.650Z,20.30
2022-11-18T07:33:57.124Z,19.05
2022-11-18T07:36:35.153Z,17.07
2022-11-18T07:39:01.118Z,20.85
2022-11-18T07:41:31.510Z,24.25
2022-11-18T07:44:03.640Z,18.70
2022-11-18T07:46:35.401Z,18.62
2022-11-18T07:49:07.246Z,16.85
2022-11-18T07:51:39.192Z,18.60
2022-11-18T07:54:10.185Z,23.47
2022-11-18T07:56:39.492Z,21.68
2022-11-18T07:59:09.211Z,14.40
2022-11-18T08:01:38.743Z,17.50
2022-11-18T08:04:10.206Z,15.88
2022-11-18T08:06:40.279Z,15.20
2022-11-18T08:09:10.349Z,16.87
2022-11-18T08:11:41.130Z,21.20
2022-11-18T08:14:10.501Z,16.02
2022-11-18T08:16:39.839Z,15.28
2022-11-18T08:19:09.092Z,17.25
2022-11-18T08:21:38.398Z,20.55
2022-11-18T08:24:09.585Z,16.97
2022-11-18T08:26:39.393Z,18.00
2022-11-18T08:29:08.622Z,18.27
2022-11-18T08:31:38.065Z,15.78
2022-11-18T08:34:08.276Z,16.87
2022-11-18T08:36:38.908Z,15.58
2022-11-18T08:39:11.257Z,13.28
2022-11-18T08:41:42.875Z,11.45
2022-11-18T08:44:14.596Z,12.67
2022-11-18T08:46:47.922Z,13.63
2022-11-18T08:49:17.594Z,12.60
2022-11-18T08:51:47.101Z,14.13
2022-11-18T08:54:16.387Z,10.65
2022-11-18T08:56:45.645Z,10.90
2022-11-18T08:59:15.798Z,16.50
2022-11-18T09:01:45.654Z,11.45
2022-11-18T09:04:14.994Z,12.60
2022-11-18T09:06:44.425Z,12.45
2022-11-18T09:09:13.933Z,11.68
2022-11-18T09:11:43.294Z,10.50
2022-11-18T09:15:11.784Z,11.88
2022-11-18T09:16:44.931Z,10.03
2022-11-18T09:19:45.482Z,10.63
2022-11-18T09:21:46.586Z,10.88
2022-11-18T09:24:16.789Z,6.60
2022-11-18T09:26:46.423Z,11.45
2022-11-18T09:29:15.778Z,9.43
2022-11-18T09:31:45.126Z,8.83
2022-11-18T09:34:14.649Z,11.35
2022-11-18T09:36:44.018Z,9.43
2022-11-18T09:39:13.406Z,9.90
2022-11-18T09:41:47.979Z,10.32
2022-11-18T09:44:38.607Z,9.18
2022-11-18T09:47:36.828Z,15.55
2022-11-18T09:50:48.054Z,9.08
2022-11-18T09:53:23.857Z,10.93
2022-11-18T09:55:53.626Z,11.57
2022-11-18T09:58:31.728Z,12.53
2022-11-18T10:01:01.671Z,12.63
2022-11-18T10:03:32.993Z,13.22
2022-11-18T10:06:11.319Z,11.10
2022-11-18T10:08:49.795Z,10.28
2022-11-18T10:11:21.058Z,13.20
2022-11-18T10:13:53.784Z,13.15
2022-11-18T10:16:57.714Z,12.60
2022-11-18T10:19:38.574Z,11.38
2022-11-18T10:22:31.828Z,14.60
2022-11-18T10:25:01.674Z,12.88
2022-11-18T10:27:41.936Z,12.68
2022-11-18T10:30:14.686Z,12.30
2022-11-18T10:33:01.926Z,11.12
2022-11-18T10:35:39.406Z,13.50
2022-11-18T10:38:17.673Z,12.85
2022-11-18T10:40:55.995Z,11.93
2022-11-18T10:43:46.486Z,10.60
2022-11-18T10:46:30.444Z,12.73
2022-11-18T10:49:15.334Z,11.60
2022-11-18T10:51:50.487Z,10.90
2022-11-18T10:54:24.093Z,11.53
2022-11-18T10:57:05.579Z,12.70
2022-11-18T10:59:47.122Z,11.43
2022-11-18T11:02:36.617Z,7.78
2022-11-18T11:05:23.269Z,10.05
2022-11-18T11:08:35.301Z,12.30
2022-11-18T11:10:38.712Z,12.05
2022-11-18T11:13:14.036Z,9.03
2022-11-18T11:15:45.285Z,9.95
2022-11-18T11:18:36.027Z,13.13
2022-11-18T11:21:07.060Z,11.08
2022-11-18T11:23:36.282Z,11.33
2022-11-18T11:29:30.107Z,10.03
2022-11-18T11:32:31.089Z,10.85
2022-11-18T11:35:15.383Z,14.83
2022-11-18T11:38:01.807Z,14.35
2022-11-18T11:40:46.786Z,17.73
2022-11-18T11:43:24.826Z,14.58
2022-11-18T11:46:22.772Z,12.20
2022-11-18T11:49:13.492Z,14.43
2022-11-18T11:51:51.819Z,18.65
2022-11-18T11:54:27.176Z,20.95
2022-11-18T11:57:25.625Z,21.40
2022-11-18T12:00:02.799Z,20.85
2022-11-18T12:02:39.935Z,18.73
2022-11-18T12:05:35.914Z,22.22
2022-11-18T12:08:13.986Z,20.02
2022-11-18T12:10:55.356Z,21.25
2022-11-18T12:13:44.680Z,25.35
2022-11-18T12:16:41.250Z,24.18
2022-11-18T12:19:16.567Z,26.20
2022-11-18T12:21:49.266Z,24.40
2022-11-18T12:24:39.023Z,23.30
2022-11-18T12:27:14.042Z,24.85
2022-11-18T12:29:55.165Z,25.30
2022-11-18T12:32:45.760Z,26.05
2022-11-18T12:35:18.297Z,24.40
2022-11-18T12:37:56.504Z,23.20
2022-11-18T12:40:43.110Z,22.17
2022-11-18T12:43:45.870Z,20.75
2022-11-18T12:46:41.386Z,21.33
2022-11-18T12:49:27.493Z,23.55
2022-11-18T12:52:01.985Z,22.42
2022-11-18T12:54:36.377Z,20.08
2022-11-18T12:57:29.411Z,19.82
2022-11-18T13:02:31.219Z,19.32
2022-11-18T13:05:11.911Z,19.45
2022-11-18T13:08:02.413Z,20.50
2022-11-18T13:10:34.163Z,18.60
2022-11-18T13:13:04.072Z,19.43
2022-11-18T13:15:51.482Z,20.97
2022-11-18T13:18:22.002Z,18.62
2022-11-18T13:20:59.071Z,19.62
2022-11-18T13:23:49.823Z,21.65
2022-11-18T13:26:30.096Z,20.70
2022-11-18T13:29:31.400Z,18.02
2022-11-18T13:32:04.083Z,20.88
2022-11-18T13:37:02.313Z,22.20
2022-11-18T13:39:33.298Z,18.52
2022-11-18T13:42:23.160Z,20.97
2022-11-18T13:44:58.072Z,20.32
2022-11-18T13:47:54.044Z,20.90
2022-11-18T13:50:34.662Z,19.27
2022-11-18T13:53:22.648Z,21.02
2022-11-18T13:55:55.241Z,21.50
2022-11-18T14:01:24.919Z,21.42
2022-11-18T14:03:56.955Z,21.52
2022-11-18T14:06:40.958Z,21.25
2022-11-18T14:09:30.453Z,25.52
2022-11-18T14:12:13.462Z,25.72
2022-11-18T14:14:44.392Z,27.98
2022-11-18T14:17:19.430Z,21.90
2022-11-18T14:19:51.889Z,23.67
2022-11-18T14:22:24.204Z,27.85
2022-11-18T14:24:59.145Z,27.58
2022-11-18T14:27:39.362Z,23.55
2022-11-18T14:30:34.298Z,26.05
2022-11-18T14:33:24.116Z,24.32
2022-11-18T14:36:02.232Z,30.85
2022-11-18T14:39:25.384Z,24.43
2022-11-18T14:41:23.476Z,25.70
2022-11-18T14:43:52.782Z,24.18
2022-11-18T14:46:22.241Z,24.02
2022-11-18T14:48:51.527Z,24.85
2022-11-18T14:51:21.668Z,26.23
2022-11-18T14:53:50.876Z,25.68
2022-11-18T14:56:32.843Z,25.82
2022-11-18T14:59:02.347Z,27.57
2022-11-18T15:01:31.813Z,29.12
2022-11-18T15:04:01.040Z,29.12
2022-11-18T15:06:30.295Z,32.85
2022-11-18T15:09:00.246Z,31.48
2022-11-18T15:11:29.583Z,35.80
2022-11-18T15:13:58.931Z,41.08
2022-11-18T15:16:31.026Z,37.90
2022-11-18T15:19:02.606Z,36.53
2022-11-18T15:21:32.389Z,33.67
2022-11-18T15:24:01.782Z,36.42
2022-11-18T15:26:37.220Z,42.65
2022-11-18T15:29:06.654Z,42.00
2022-11-18T15:31:35.875Z,41.92
2022-11-18T15:34:18.386Z,40.23
2022-11-18T15:36:36.429Z,44.03
2022-11-18T15:39:05.791Z,39.75
2022-11-18T15:41:35.214Z,44.33
2022-11-18T15:44:04.614Z,44.10
2022-11-18T15:46:34.294Z,42.33
2022-11-18T15:49:04.462Z,44.38
2022-11-18T15:51:34.154Z,43.38
2022-11-18T15:54:03.516Z,43.52
2022-11-18T15:56:33.868Z,44.60
2022-11-18T15:59:05.375Z,52.40
2022-11-18T16:01:37.881Z,42.65
2022-11-18T16:04:08.683Z,50.33
2022-11-18T16:06:38.537Z,50.65
2022-11-18T16:09:08.278Z,51.30
2022-11-18T16:11:55.490Z,50.05
2022-11-18T16:14:25.466Z,49.30
2022-11-18T16:16:56.611Z,51.28
2022-11-18T16:19:28.743Z,53.75
2022-11-18T16:21:58.396Z,52.62
2022-11-18T16:24:29.396Z,51.40
2022-11-18T16:26:59.039Z,54.08
2022-11-18T16:29:28.325Z,65.10
2022-11-18T16:31:57.656Z,55.15
2022-11-18T16:34:29.834Z,61.92
2022-11-18T16:37:02.702Z,63.58
2022-11-18T16:39:32.081Z,59.60
2022-11-18T16:42:08.495Z,60.52
2022-11-18T16:44:34.159Z,66.12
2022-11-18T16:47:06.499Z,61.58
2022-11-18T16:49:34.381Z,60.20
2022-11-18T16:52:03.715Z,68.75
2022-11-18T16:54:33.321Z,58.30
2022-11-18T16:57:02.736Z,61.13
2022-11-18T16:59:32.965Z,57.25
2022-11-18T17:02:03.051Z,60.80
2022-11-18T17:04:34.689Z,62.70
2022-11-18T17:07:04.095Z,69.00
2022-11-18T17:09:33.871Z,64.67
2022-11-18T17:12:03.661Z,73.02
2022-11-18T17:14:32.919Z,73.35
2022-11-18T17:17:02.113Z,66.47
2022-11-18T17:19:31.466Z,63.48
2022-11-18T17:22:00.836Z,67.75
2022-11-18T17:24:30.198Z,65.47
2022-11-18T17:26:59.577Z,70.78
2022-11-18T17:29:29.083Z,64.47
2022-11-18T17:31:58.354Z,65.47
2022-11-18T17:34:27.595Z,69.58
2022-11-18T17:37:00.196Z,71.50
2022-11-18T17:39:27.826Z,70.25
2022-11-18T17:42:15.534Z,69.80
2022-11-18T17:44:45.409Z,67.32
2022-11-18T17:47:14.612Z,68.72
2022-11-18T17:49:44.091Z,69.77
2022-11-18T17:52:13.362Z,67.08
2022-11-18T17:54:42.689Z,75.05
2022-11-18T17:57:12.000Z,69.72
2022-11-18T17:59:41.295Z,73.05
2022-11-18T18:02:12.613Z,78.75
2022-11-18T18:04:41.997Z,83.70
2022-11-18T18:07:11.406Z,76.00
2022-11-18T18:09:40.641Z,67.72
2022-11-18T18:12:27.829Z,61.58
2022-11-18T18:14:57.201Z,66.33
2022-11-18T18:17:26.537Z,67.37
2022-11-18T18:19:55.798Z,68.92
2022-11-18T18:22:25.067Z,76.15
2022-11-18T18:24:57.385Z,79.10
2022-11-18T18:27:26.631Z,79.87
2022-11-18T18:29:55.999Z,72.62
2022-11-18T18:32:25.289Z,71.62
2022-11-18T18:34:54.644Z,69.58
2022-11-18T18:37:23.865Z,75.72
2022-11-18T18:39:53.573Z,79.05
2022-11-18T18:42:22.807Z,79.35
2022-11-18T18:45:09.825Z,79.45
2022-11-18T18:47:39.152Z,74.40
2022-11-18T18:50:08.693Z,79.10
2022-11-18T18:52:37.926Z,79.07
2022-11-18T18:55:07.839Z,86.00
2022-11-18T18:57:37.433Z,79.12
2022-11-18T19:00:08.286Z,84.58
2022-11-18T19:02:37.531Z,77.85
2022-11-18T19:05:08.079Z,86.20
2022-11-18T19:07:37.405Z,86.97
2022-11-18T19:10:07.521Z,82.27
2022-11-18T19:12:47.235Z,102.60
2022-11-18T19:15:16.919Z,104.63
2022-11-18T19:17:47.272Z,103.95
2022-11-18T19:20:36.828Z,93.33
2022-11-18T19:23:10.356Z,93.87
2022-11-18T19:25:39.430Z,93.42
2022-11-18T19:28:09.498Z,85.32
2022-11-18T19:30:39.187Z,94.35
2022-11-18T19:33:08.569Z,95.55
2022-11-18T19:35:38.257Z,106.55
2022-11-18T19:38:07.758Z,104.50
2022-11-18T19:40:37.019Z,114.45
2022-11-18T19:43:06.628Z,124.60
2022-11-18T19:45:35.993Z,127.60
2022-11-18T19:48:06.280Z,112.22
2022-11-18T19:50:35.819Z,120.70
2022-11-18T19:53:06.850Z,103.60
2022-11-18T19:55:36.249Z,99.32
2022-11-18T19:58:05.475Z,107.92
2022-11-18T20:00:34.846Z,113.35
2022-11-18T20:03:06.069Z,115.92
2022-11-18T20:05:54.903Z,99.47
2022-11-18T20:08:25.624Z,98.90
2022-11-18T20:10:55.111Z,101.02
2022-11-18T20:13:24.361Z,113.57
2022-11-18T20:15:54.006Z,118.70
2022-11-18T20:18:24.937Z,113.20
2022-11-18T20:20:54.505Z,128.50
2022-11-18T20:23:24.399Z,123.62
2022-11-18T20:25:53.905Z,123.85
2022-11-18T20:28:23.129Z,121.30
2022-11-18T20:30:55.654Z,100.82
2022-11-18T20:33:25.059Z,112.22
2022-11-18T20:35:54.480Z,107.12
2022-11-18T20:38:25.110Z,93.78
2022-11-18T20:40:54.397Z,123.45
2022-11-18T20:43:23.836Z,124.25
2022-11-18T20:45:55.672Z,157.55
2022-11-18T20:48:25.066Z,109.65
2022-11-18T20:50:54.708Z,156.70
2022-11-18T20:53:25.911Z,135.35
2022-11-18T20:55:55.570Z,127.55
2022-11-18T20:58:25.032Z,164.70
2022-11-18T21:00:58.049Z,166.35
2022-11-18T21:03:25.576Z,135.80
2022-11-18T21:05:54.827Z,131.27
2022-11-18T21:08:24.192Z,152.12
2022-11-18T21:10:53.416Z,151.20
2022-11-18T21:13:41.119Z,134.37
2022-11-18T21:16:10.353Z,164.70
2022-11-18T21:18:39.814Z,123.80
2022-11-18T21:21:27.118Z,125.20
2022-11-18T21:23:58.190Z,154.45
2022-11-18T21:26:29.759Z,165.32
2022-11-18T21:29:00.615Z,172.40
2022-11-18T21:31:30.390Z,162.35
2022-11-18T21:33:59.941Z,128.27
2022-11-18T21:36:29.854Z,189.43
2022-11-18T21:38:59.628Z,134.63
2022-11-18T21:41:30.286Z,123.72
2022-11-18T21:44:06.908Z,123.78
2022-11-18T21:46:32.275Z,133.32
2022-11-18T21:49:01.930Z,131.22
2022-11-18T21:51:35.054Z,140.60
2022-11-18T21:54:04.748Z,133.27
2022-11-18T21:56:34.652Z,154.15
2022-11-18T21:59:04.095Z,139.28
2022-11-18T22:01:34.437Z,88.22
2022-11-18T22:04:05.602Z,57.45
2022-11-18T22:06:35.629Z,45.17
2022-11-18T22:09:06.180Z,51.55
2022-11-18T22:11:35.593Z,55.95
2022-11-18T22:14:06.271Z,54.67
2022-11-18T22:16:35.766Z,47.45
2022-11-18T22:19:08.174Z,46.48
2022-11-18T22:21:36.292Z,49.10
2022-11-18T22:24:06.092Z,49.63
2022-11-18T22:26:36.009Z,55.78
2022-11-18T22:29:05.628Z,55.90
2022-11-18T22:31:35.208Z,63.78
2022-11-18T22:34:04.526Z,63.15
2022-11-18T22:36:34.490Z,65.20
2022-11-18T22:39:04.028Z,67.80
2022-11-18T22:41:51.435Z,65.05
2022-11-18T22:44:20.678Z,69.70
2022-11-18T22:46:50.045Z,74.42
2022-11-18T22:49:19.568Z,74.77
2022-11-18T22:51:48.967Z,77.97
2022-11-18T22:56:49.295Z,81.15
2022-11-18T22:59:19.118Z,91.85
2022-11-18T23:01:48.641Z,88.42
2022-11-18T23:04:17.939Z,86.75
2022-11-18T23:06:47.342Z,81.15
2022-11-18T23:09:17.264Z,83.58
2022-11-18T23:12:04.788Z,92.17
2022-11-18T23:14:34.170Z,89.30
2022-11-18T23:17:04.772Z,81.57
2022-11-18T23:19:34.071Z,88.58
2022-11-18T23:22:03.259Z,87.78
2022-11-18T23:24:32.598Z,93.40
2022-11-18T23:27:01.823Z,108.15
2022-11-18T23:29:31.215Z,97.47
2022-11-18T23:32:00.451Z,89.65
2022-11-18T23:34:29.762Z,88.40
2022-11-18T23:36:58.976Z,92.85
2022-11-18T23:39:28.330Z,83.72
2022-11-18T23:41:57.527Z,89.17
2022-11-18T23:44:28.531Z,82.97
2022-11-18T23:46:57.745Z,88.72
2022-11-18T23:49:27.049Z,87.33
2022-11-18T23:51:56.462Z,92.27
2022-11-18T23:54:25.870Z,81.60
2022-11-18T23:56:55.138Z,91.25
2022-11-18T23:59:24.380Z,90.87
